Tuesday, June 19, 2018, 3:59 PM EDT
Back to Local

KFIG, Clearfield-lawrence Airport

Location: Clearfield, PA, United States Lat: 41.05
Local Time: 3:59 PM EDT (19:59 GMT) Lon: -78.417
Time Zone: US/Eastern Elev: 1515 ft

Show me the last for .
Show Decoded

2018-06-19 14:54 METAR KFIG 191854Z AUTO VRB05KT 10SM SCT045 27/16 A2995 RMK AO2 SLP130 T02720156
                 =
2018-06-19 13:54 METAR KFIG 191754Z AUTO 35005KT 10SM BKN036 26/17 A2997 RMK AO2 SLP136 60002
                 T02560167 10256 20222 56002 =
2018-06-19 12:54 METAR KFIG 191654Z AUTO VRB03KT 10SM SCT027 24/17 A2997 RMK AO2 SLP137 T02440172
                 =
2018-06-19 12:50 METAR KFIG 191650Z AUTO 34008KT 10SM SCT027 25/18 A2997 RMK AO2 =
2018-06-19 11:54 METAR KFIG 191554Z AUTO 05008KT 10SM OVC021 23/19 A2997 RMK AO2 SLP139 T02280189
                 =
2018-06-19 10:54 METAR KFIG 191454Z AUTO 03010G15KT 10SM BKN020 OVC028 22/19 A2996 RMK AO2 SLP135
                 60002 T02220194 51008 =
2018-06-19 09:54 METAR KFIG 191354Z AUTO 02007KT 10SM FEW014 SCT019 BKN024 24/20 A2995 RMK AO2
                 SLP131 T02390200 =
2018-06-19 08:45 METAR KFIG 191245Z AUTO 36005KT 10SM SCT019 BKN034 OVC046 22/21 A2995 RMK AO2
                 RAE14 P0002 T02220211 =
2018-06-19 08:04 METAR KFIG 191204Z AUTO 34005KT 4SM -RA BR FEW010 BKN019 OVC026 22/21 A2994 RMK
                 AO2 P0002 T02170211 =
2018-06-19 07:50 METAR KFIG 191150Z AUTO 33005KT 1 1/4SM RA BR FEW009 SCT018 OVC026 22/21 A2994
                 RMK AO2 RAB35 SLP127 P0004 60014 70047 T02170211 10222 20217 53006 =
2018-06-19 07:49 METAR KFIG 191149Z AUTO 33006KT 1 1/2SM RA BR FEW009 SCT018 OVC026 22/21 A2994
                 RMK AO2 RAB35 P0004 =
2018-06-19 07:43 METAR KFIG 191143Z AUTO 30005KT 2SM RA BR FEW018 BKN026 OVC034 22/21 A2994 RMK
                 AO2 RAB35 P0002 T02220211 =
2018-06-19 06:54 METAR KFIG 191054Z AUTO 25004KT 10SM FEW050 SCT110 22/21 A2992 RMK AO2 RAE30
                 SLP122 P0000 T02170211 =
2018-06-19 05:54 METAR KFIG 190954Z AUTO 25004KT 10SM -RA FEW012 OVC070 22/21 A2992 RMK AO2
                 SLP119 P0003 T02170211 =
2018-06-19 04:54 METAR KFIG 190854Z AUTO 23007KT 9SM -RA FEW009 OVC060 22/21 A2992 RMK AO2
                 RAE15B33 SLP119 P0001 60007 T02170211 53001 =
2018-06-19 04:21 METAR KFIG 190821Z AUTO 22006KT 8SM FEW002 BKN060 OVC090 22/21 A2991 RMK AO2
                 RAE15 P0000 T02170211 =
2018-06-19 03:54 METAR KFIG 190754Z AUTO 22005KT 6SM -RA BR FEW060 OVC080 22/21 A2991 RMK AO2 LTG
                 DSNT S AND SW RAE0658B17 SLP116 P0005 T02170211 =
2018-06-19 02:54 METAR KFIG 190654Z AUTO 25004KT 10SM -RA FEW055 SCT065 BKN100 22/21 A2992 RMK
                 AO2 RAE0559B23 SLP116 P0001 T02170211 =
2018-06-19 01:54 METAR KFIG 190554Z AUTO 20003KT 10SM -RA FEW060 BKN095 BKN110 22/21 A2992 RMK
                 AO2 LTG DSNT SW SLP118 P0002 60027 T02170211 10244 20217 58001 =
2018-06-19 00:54 METAR KFIG 190454Z AUTO 20004KT 7SM -RA FEW016 SCT055 OVC110 22/21 A2993 RMK AO2
                 LTG DSNT SE-SW SLP121 P0008 T02170211 403280172 =
2018-06-19 00:23 METAR KFIG 190423Z AUTO 20006KT 5SM -RA BR SCT016 BKN075 OVC110 22/21 A2994 RMK
                 AO2 LTG DSNT SE-W P0006 T02170211 =
2018-06-18 23:54 METAR KFIG 190354Z AUTO 00000KT 4SM VCTS RA BR FEW014 BKN065 OVC100 22/22 A2995
                 RMK AO2 LTG DSNT ALQDS RAB01 TSE19B22E37 SLP128 P0017 T02220217 =
2018-06-18 23:43 METAR KFIG 190343Z AUTO VRB05KT 4SM VCTS RA BR FEW017 BKN080 OVC110 22/21 A2996
                 RMK AO2 LTG DSNT ALQDS RAB01 TSE19B22E37 P0015 T02220211 =
2018-06-18 22:54 METAR KFIG 190254Z AUTO 9SM TS SCT060 SCT070 SCT090 24/23 A2992 RMK AO2 LTG DSNT
                 ALQDS TSB53 SLP118 T02390228 55002 =
2018-06-18 22:44 METAR KFIG 190244Z AUTO 19004KT 9SM VCTS SCT065 24/23 A2991 RMK AO2 LTG DSNT
                 ALQDS T02390228 =
2018-06-18 21:54 METAR KFIG 190154Z AUTO 21006KT 10SM CLR 24/22 A2991 RMK AO2 SLP114 T02390222 =
2018-06-18 20:54 METAR KFIG 190054Z AUTO 21005KT 10SM CLR 24/22 A2992 RMK AO2 SLP120 T02390217 =
2018-06-18 19:54 METAR KFIG 182354Z AUTO 21005KT 10SM CLR 24/22 A2993 RMK AO2 SLP124 60006
                 T02440217 10328 20239 56014 =
2018-06-18 18:54 METAR KFIG 182254Z AUTO 19005KT 10SM CLR 26/22 A2994 RMK AO2 SLP127 T02560217 =
2018-06-18 17:54 METAR KFIG 182154Z AUTO 21006KT 10SM CLR 24/21 A2995 RMK AO2 LTG DSNT E
                 RAB2055E17 SLP133 P0006 T02440211 =
2018-06-18 16:54 METAR KFIG 182054Z AUTO 25019G28KT 6SM HZ BKN047 BKN060 29/21 A2997 RMK AO2 PK
                 WND 24028/2053 LTG DSNT E-SW SLP138 T02890206 56015 =
2018-06-18 16:06 METAR KFIG 182006Z AUTO 25009G15KT 10SM FEW049 SCT060 32/22 A2998 RMK AO2 LTG
                 DSNT NE AND E T03170217 =

Support USWX by starting your Amazon purchase here.